createdAt,value
2022-09-20T00:00:19.967Z,9.56
2022-09-20T00:01:20.057Z,9.57
2022-09-20T00:02:19.848Z,9.57
2022-09-20T00:03:19.780Z,9.57
2022-09-20T00:04:19.713Z,9.57
2022-09-20T00:05:19.717Z,9.58
2022-09-20T00:06:19.617Z,9.58
2022-09-20T00:07:19.532Z,9.56
2022-09-20T00:08:19.464Z,9.56
2022-09-20T00:09:19.428Z,9.56
2022-09-20T00:10:19.317Z,9.56
2022-09-20T00:11:20.039Z,9.54
2022-09-20T00:12:19.192Z,9.56
2022-09-20T00:13:19.126Z,9.56
2022-09-20T00:14:19.066Z,9.56
2022-09-20T00:15:19.005Z,9.56
2022-09-20T00:16:18.974Z,9.57
2022-09-20T00:17:18.873Z,9.57
2022-09-20T00:18:18.817Z,9.57
2022-09-20T00:19:18.733Z,9.57
2022-09-20T00:20:18.680Z,9.57
2022-09-20T00:21:18.617Z,9.58
2022-09-20T00:22:18.532Z,9.57
2022-09-20T00:23:19.264Z,9.58
2022-09-20T00:24:18.402Z,9.57
2022-09-20T00:25:18.335Z,9.56
2022-09-20T00:26:18.274Z,9.56
2022-09-20T00:27:18.223Z,9.53
2022-09-20T00:28:18.157Z,9.51
2022-09-20T00:29:18.085Z,9.51
2022-09-20T00:30:18.027Z,9.51
2022-09-20T00:31:18.052Z,9.50
2022-09-20T00:32:17.877Z,9.51
2022-09-20T00:33:17.830Z,9.51
2022-09-20T00:34:17.746Z,9.51
2022-09-20T00:35:18.487Z,9.50
2022-09-20T00:36:17.629Z,9.48
2022-09-20T00:37:17.563Z,9.48
2022-09-20T00:38:17.502Z,9.50
2022-09-20T00:39:17.426Z,9.48
2022-09-20T00:40:17.438Z,9.51
2022-09-20T00:41:17.312Z,9.50
2022-09-20T00:42:17.235Z,9.53
2022-09-20T00:43:17.177Z,9.53
2022-09-20T00:44:17.113Z,9.54
2022-09-20T00:45:17.052Z,9.53
2022-09-20T00:46:17.024Z,9.50
2022-09-20T00:47:16.931Z,9.50
2022-09-20T00:48:16.838Z,9.53
2022-09-20T00:49:16.783Z,9.53
2022-09-20T00:50:16.700Z,9.51
2022-09-20T00:51:16.656Z,9.50
2022-09-20T00:52:16.588Z,9.47
2022-09-20T00:53:17.282Z,9.48
2022-09-20T00:54:20.139Z,9.48
2022-09-20T00:55:16.388Z,9.48
2022-09-20T00:56:16.322Z,9.47
2022-09-20T00:57:16.247Z,9.46
2022-09-20T00:58:16.182Z,9.46
2022-09-20T00:59:16.918Z,9.43
2022-09-20T01:00:16.049Z,9.46
2022-09-20T01:01:16.051Z,9.43
2022-09-20T01:02:15.988Z,9.43
2022-09-20T01:03:15.851Z,9.43
2022-09-20T01:04:15.788Z,9.42
2022-09-20T01:05:16.770Z,9.42
2022-09-20T01:06:15.684Z,9.39
2022-09-20T01:07:15.609Z,9.36
2022-09-20T01:08:15.539Z,9.36
2022-09-20T01:09:15.465Z,9.35
2022-09-20T01:10:15.401Z,9.32
2022-09-20T01:11:16.870Z,9.31
2022-09-20T01:12:15.281Z,9.29
2022-09-20T01:13:15.239Z,9.29
2022-09-20T01:14:15.132Z,9.29
2022-09-20T01:15:15.076Z,9.28
2022-09-20T01:16:15.035Z,9.26
2022-09-20T01:17:15.734Z,9.26
2022-09-20T01:18:14.876Z,9.26
2022-09-20T01:19:14.806Z,9.28
2022-09-20T01:20:14.721Z,9.28
2022-09-20T01:21:14.674Z,9.29
2022-09-20T01:22:14.608Z,9.28
2022-09-20T01:23:14.571Z,9.28
2022-09-20T01:24:14.493Z,9.29
2022-09-20T01:25:14.421Z,9.29
2022-09-20T01:26:14.361Z,9.31
2022-09-20T01:27:14.293Z,9.33
2022-09-20T01:28:14.230Z,9.32
2022-09-20T01:29:14.181Z,9.33
2022-09-20T01:30:14.090Z,9.33
2022-09-20T01:31:14.095Z,9.35
2022-09-20T01:32:13.968Z,9.32
2022-09-20T01:33:13.908Z,9.33
2022-09-20T01:34:13.824Z,9.33
2022-09-20T01:35:14.986Z,9.33
2022-09-20T01:36:13.708Z,9.35
2022-09-20T01:37:13.632Z,9.32
2022-09-20T01:38:13.580Z,9.33
2022-09-20T01:39:13.515Z,9.33
2022-09-20T01:40:13.518Z,9.29
2022-09-20T01:41:14.160Z,9.31
2022-09-20T01:42:13.305Z,9.32
2022-09-20T01:43:13.240Z,9.32
2022-09-20T01:44:13.187Z,9.31
2022-09-20T01:45:13.127Z,9.28
2022-09-20T01:46:13.086Z,9.24
2022-09-20T01:47:12.993Z,9.24
2022-09-20T01:48:12.922Z,9.26
2022-09-20T01:49:12.860Z,9.29
2022-09-20T01:50:12.783Z,9.29
2022-09-20T01:51:12.732Z,9.29
2022-09-20T01:52:12.663Z,9.28
2022-09-20T01:53:12.606Z,9.29
2022-09-20T01:54:12.519Z,9.28
2022-09-20T01:55:12.454Z,9.28
2022-09-20T01:56:12.415Z,9.26
2022-09-20T01:57:12.337Z,9.28
2022-09-20T01:58:12.258Z,9.28
2022-09-20T01:59:23.666Z,9.29
2022-09-20T02:00:12.135Z,9.29
2022-09-20T02:01:12.143Z,9.31
2022-09-20T02:02:12.054Z,9.28
2022-09-20T02:03:11.927Z,9.29
2022-09-20T02:04:11.878Z,9.31
2022-09-20T02:05:11.831Z,9.31
2022-09-20T02:06:11.748Z,9.31
2022-09-20T02:07:11.681Z,9.29
2022-09-20T02:08:11.619Z,9.29
2022-09-20T02:09:11.536Z,9.31
2022-09-20T02:10:11.476Z,9.31
2022-09-20T02:11:13.306Z,9.28
2022-09-20T02:12:11.372Z,9.29
2022-09-20T02:13:11.291Z,9.28
2022-09-20T02:14:11.224Z,9.28
2022-09-20T02:15:11.183Z,9.29
2022-09-20T02:16:11.141Z,9.29
2022-09-20T02:17:11.811Z,9.26
2022-09-20T02:18:10.974Z,9.26
2022-09-20T02:19:10.900Z,9.24
2022-09-20T02:20:10.821Z,9.24
2022-09-20T02:21:10.794Z,9.24
2022-09-20T02:22:10.688Z,9.24
2022-09-20T02:23:10.715Z,9.26
2022-09-20T02:24:10.555Z,9.23
2022-09-20T02:25:10.510Z,9.21
2022-09-20T02:26:10.461Z,9.23
2022-09-20T02:27:10.377Z,9.21
2022-09-20T02:28:10.311Z,9.23
2022-09-20T02:29:11.437Z,9.21
2022-09-20T02:30:10.177Z,9.21
2022-09-20T02:31:10.203Z,9.18
2022-09-20T02:32:10.044Z,9.20
2022-09-20T02:33:09.988Z,9.18
2022-09-20T02:34:09.927Z,9.18
2022-09-20T02:35:09.849Z,9.17
2022-09-20T02:36:09.786Z,9.17
2022-09-20T02:37:09.705Z,9.15
2022-09-20T02:38:09.655Z,9.15
2022-09-20T02:39:09.591Z,9.13
2022-09-20T02:40:09.590Z,9.13
2022-09-20T02:41:10.253Z,9.13
2022-09-20T02:42:09.398Z,9.14
2022-09-20T02:43:09.333Z,9.17
2022-09-20T02:44:09.248Z,9.17
2022-09-20T02:45:09.188Z,9.17
2022-09-20T02:46:09.197Z,9.18
2022-09-20T02:47:09.102Z,9.18
2022-09-20T02:48:09.004Z,9.18
2022-09-20T02:49:08.922Z,9.20
2022-09-20T02:50:08.857Z,9.18
2022-09-20T02:51:08.792Z,9.18
2022-09-20T02:52:08.741Z,9.20
2022-09-20T02:53:08.706Z,9.18
2022-09-20T02:54:08.612Z,9.18
2022-09-20T02:55:08.538Z,9.18
2022-09-20T02:56:08.468Z,9.17
2022-09-20T02:57:08.414Z,9.17
2022-09-20T02:58:08.349Z,9.17
2022-09-20T02:59:09.827Z,9.20
2022-09-20T03:00:08.220Z,9.21
2022-09-20T03:01:08.209Z,9.20
2022-09-20T03:02:08.109Z,9.21
2022-09-20T03:03:08.009Z,9.18
2022-09-20T03:04:07.938Z,9.21
2022-09-20T03:05:09.100Z,9.20
2022-09-20T03:06:07.813Z,9.20
2022-09-20T03:07:07.755Z,9.18
2022-09-20T03:08:07.681Z,9.17
2022-09-20T03:09:07.612Z,9.15
2022-09-20T03:10:07.557Z,9.13
2022-09-20T03:11:07.502Z,9.13
2022-09-20T03:12:07.433Z,9.10
2022-09-20T03:13:07.367Z,9.08
2022-09-20T03:14:07.379Z,9.04
2022-09-20T03:15:07.237Z,9.02
2022-09-20T03:16:07.236Z,9.02
2022-09-20T03:17:09.229Z,8.99
2022-09-20T03:18:07.041Z,8.98
2022-09-20T03:19:06.982Z,8.96
2022-09-20T03:20:06.893Z,8.95
2022-09-20T03:21:06.831Z,8.92
2022-09-20T03:22:06.766Z,8.92
2022-09-20T03:23:08.261Z,8.91
2022-09-20T03:24:06.630Z,8.87
2022-09-20T03:25:06.591Z,8.87
2022-09-20T03:26:06.533Z,8.86
2022-09-20T03:27:06.449Z,8.84
2022-09-20T03:28:06.369Z,8.83
2022-09-20T03:29:06.468Z,8.79
2022-09-20T03:30:06.256Z,8.79
2022-09-20T03:31:06.188Z,8.80
2022-09-20T03:32:06.199Z,8.79
2022-09-20T03:33:06.168Z,8.79
2022-09-20T03:34:06.088Z,8.77
2022-09-20T03:35:05.934Z,8.77
2022-09-20T03:36:05.849Z,8.76
2022-09-20T03:37:05.793Z,8.77
2022-09-20T03:38:05.722Z,8.76
2022-09-20T03:39:05.648Z,8.77
2022-09-20T03:40:05.643Z,8.76
2022-09-20T03:41:05.553Z,8.77
2022-09-20T03:42:05.472Z,8.77
2022-09-20T03:43:05.406Z,8.77
2022-09-20T03:44:05.494Z,8.77
2022-09-20T03:45:05.310Z,8.76
2022-09-20T03:46:05.249Z,8.77
2022-09-20T03:47:06.665Z,8.76
2022-09-20T03:48:05.085Z,8.77
2022-09-20T03:49:05.000Z,8.77
2022-09-20T03:50:04.929Z,8.76
2022-09-20T03:51:04.919Z,8.73
2022-09-20T03:52:04.803Z,8.74
2022-09-20T03:53:05.507Z,8.76
2022-09-20T03:54:04.683Z,8.74
2022-09-20T03:55:04.602Z,8.77
2022-09-20T03:56:04.564Z,8.76
2022-09-20T03:57:04.478Z,8.77
2022-09-20T03:58:08.596Z,8.77
2022-09-20T03:59:05.221Z,8.77
2022-09-20T04:00:04.289Z,8.79
2022-09-20T04:01:04.304Z,8.77
2022-09-20T04:02:04.320Z,8.76
2022-09-20T04:03:04.036Z,8.77
2022-09-20T04:04:04.025Z,8.79
2022-09-20T04:05:04.747Z,8.79
2022-09-20T04:06:03.899Z,8.77
2022-09-20T04:07:03.820Z,8.77
2022-09-20T04:08:03.785Z,8.79
2022-09-20T04:09:03.695Z,8.77
2022-09-20T04:10:03.642Z,8.77
2022-09-20T04:11:04.379Z,8.76
2022-09-20T04:12:03.494Z,8.80
2022-09-20T04:13:03.434Z,8.79
2022-09-20T04:14:05.907Z,8.80
2022-09-20T04:15:03.315Z,8.79
2022-09-20T04:16:03.232Z,8.77
2022-09-20T04:17:03.280Z,8.77
2022-09-20T04:18:03.112Z,8.77
2022-09-20T04:19:03.032Z,8.79
2022-09-20T04:20:02.949Z,8.79
2022-09-20T04:21:02.846Z,8.81
2022-09-20T04:22:02.803Z,8.79
2022-09-20T04:23:03.058Z,8.80
2022-09-20T04:24:02.697Z,8.81
2022-09-20T04:25:02.591Z,8.81
2022-09-20T04:26:02.611Z,8.83
2022-09-20T04:27:02.532Z,8.83
2022-09-20T04:28:02.462Z,8.81
2022-09-20T04:29:03.910Z,8.77
2022-09-20T04:30:02.327Z,8.77
2022-09-20T04:31:02.250Z,8.74
2022-09-20T04:32:02.234Z,8.77
2022-09-20T04:33:02.136Z,8.74
2022-09-20T04:34:02.049Z,8.73
2022-09-20T04:35:02.810Z,8.73
2022-09-20T04:36:01.864Z,8.70
2022-09-20T04:37:01.814Z,8.70
2022-09-20T04:38:01.760Z,8.70
2022-09-20T04:39:01.667Z,8.71
2022-09-20T04:40:01.683Z,8.70
2022-09-20T04:41:01.571Z,8.70
2022-09-20T04:42:01.489Z,8.68
2022-09-20T04:43:01.423Z,8.66
2022-09-20T04:44:01.398Z,8.66
2022-09-20T04:45:01.292Z,8.66
2022-09-20T04:46:01.353Z,8.65
2022-09-20T04:47:02.404Z,8.63
2022-09-20T04:48:01.091Z,8.61
2022-09-20T04:49:01.013Z,8.61
2022-09-20T04:50:00.950Z,8.61
2022-09-20T04:51:00.893Z,8.61
2022-09-20T04:52:00.860Z,8.62
2022-09-20T04:53:00.776Z,8.63
2022-09-20T04:54:00.708Z,8.62
2022-09-20T04:55:00.626Z,8.63
2022-09-20T04:56:00.571Z,8.65
2022-09-20T04:57:00.494Z,8.66
2022-09-20T04:58:00.425Z,8.66
2022-09-20T04:59:00.391Z,8.68
2022-09-20T05:00:00.298Z,8.68
2022-09-20T05:01:00.274Z,8.70
2022-09-20T05:02:00.272Z,8.74
2022-09-20T05:03:00.096Z,8.74
2022-09-20T05:04:00.055Z,8.74
2022-09-20T05:05:01.171Z,8.74
2022-09-20T05:05:59.912Z,8.77
2022-09-20T05:06:59.876Z,8.77
2022-09-20T05:07:59.787Z,8.80
2022-09-20T05:08:59.933Z,8.80
2022-09-20T05:09:59.661Z,8.81
2022-09-20T05:10:59.611Z,8.83
2022-09-20T05:11:59.507Z,8.84
2022-09-20T05:12:59.455Z,8.84
2022-09-20T05:13:59.397Z,8.86
2022-09-20T05:14:59.324Z,8.86
2022-09-20T05:15:59.284Z,8.86
2022-09-20T05:17:00.075Z,8.87
2022-09-20T05:17:59.118Z,8.86
2022-09-20T05:18:59.083Z,8.87
2022-09-20T05:19:59.022Z,8.87
2022-09-20T05:20:58.961Z,8.89
2022-09-20T05:21:58.860Z,8.87
2022-09-20T05:22:58.792Z,8.87
2022-09-20T05:23:58.739Z,8.87
2022-09-20T05:24:58.669Z,8.87
2022-09-20T05:25:58.639Z,8.89
2022-09-20T05:26:58.538Z,8.89
2022-09-20T05:27:58.467Z,8.89
2022-09-20T05:28:58.675Z,8.91
2022-09-20T05:29:58.986Z,8.92
2022-09-20T05:30:58.281Z,8.89
2022-09-20T05:31:59.156Z,8.89
2022-09-20T05:32:58.149Z,8.92
2022-09-20T05:33:58.079Z,8.92
2022-09-20T05:34:58.038Z,8.92
2022-09-20T05:35:58.526Z,8.91
2022-09-20T05:36:57.875Z,8.94
2022-09-20T05:37:57.815Z,8.92
2022-09-20T05:38:59.051Z,8.91
2022-09-20T05:39:57.753Z,8.91
2022-09-20T05:40:58.408Z,8.92
2022-09-20T05:41:57.560Z,8.92
2022-09-20T05:42:57.484Z,8.94
2022-09-20T05:43:57.418Z,8.96
2022-09-20T05:44:57.369Z,8.96
2022-09-20T05:45:57.307Z,8.95
2022-09-20T05:46:58.278Z,8.95
2022-09-20T05:47:57.178Z,8.96
2022-09-20T05:48:57.122Z,8.96
2022-09-20T05:49:57.039Z,8.99
2022-09-20T05:50:57.835Z,8.99
2022-09-20T05:51:56.916Z,8.98
2022-09-20T05:52:59.122Z,8.98
2022-09-20T05:53:56.770Z,8.98
2022-09-20T05:54:56.694Z,8.99
2022-09-20T05:55:56.631Z,8.99
2022-09-20T05:56:56.610Z,9.01
2022-09-20T05:57:56.562Z,9.01
2022-09-20T05:58:57.249Z,9.01
2022-09-20T05:59:56.370Z,9.01
2022-09-20T06:00:56.340Z,9.01
2022-09-20T06:01:56.293Z,9.04
2022-09-20T06:02:56.192Z,9.04
2022-09-20T06:03:56.174Z,9.05
2022-09-20T06:04:56.050Z,9.05
2022-09-20T06:05:55.985Z,9.05
2022-09-20T06:06:55.920Z,9.10
2022-09-20T06:07:55.856Z,9.11
2022-09-20T06:08:55.793Z,9.15
2022-09-20T06:09:55.711Z,9.15
2022-09-20T06:10:56.448Z,9.14
2022-09-20T06:11:55.598Z,9.17
2022-09-20T06:12:55.532Z,9.18
2022-09-20T06:13:55.468Z,9.20
2022-09-20T06:14:55.400Z,9.23
2022-09-20T06:15:55.324Z,9.24
2022-09-20T06:16:56.048Z,9.23
2022-09-20T06:17:55.190Z,9.23
2022-09-20T06:18:55.126Z,9.23
2022-09-20T06:19:55.075Z,9.23
2022-09-20T06:20:54.999Z,9.21
2022-09-20T06:21:54.933Z,9.21
2022-09-20T06:22:56.398Z,9.21
2022-09-20T06:23:54.838Z,9.23
2022-09-20T06:24:54.762Z,9.21
2022-09-20T06:25:54.711Z,9.21
2022-09-20T06:26:54.615Z,9.21
2022-09-20T06:27:54.548Z,9.23
2022-09-20T06:28:58.251Z,9.23
2022-09-20T06:29:54.421Z,9.23
2022-09-20T06:30:54.393Z,9.26
2022-09-20T06:31:54.284Z,9.24
2022-09-20T06:32:54.227Z,9.24
2022-09-20T06:33:54.145Z,9.24
2022-09-20T06:34:58.104Z,9.23
2022-09-20T06:35:58.703Z,9.23
2022-09-20T06:36:53.953Z,9.23
2022-09-20T06:37:53.904Z,9.23
2022-09-20T06:38:53.815Z,9.28
2022-09-20T06:39:53.749Z,9.28
2022-09-20T06:40:53.706Z,9.29
2022-09-20T06:41:53.620Z,9.35
2022-09-20T06:42:53.569Z,9.38
2022-09-20T06:43:53.491Z,9.42
2022-09-20T06:44:53.447Z,9.43
2022-09-20T06:45:53.432Z,9.46
2022-09-20T06:46:53.324Z,9.42
2022-09-20T06:47:53.226Z,9.43
2022-09-20T06:48:53.187Z,9.46
2022-09-20T06:49:54.020Z,9.46
2022-09-20T06:50:53.027Z,9.47
2022-09-20T06:51:52.997Z,9.48
2022-09-20T06:52:54.452Z,9.53
2022-09-20T06:53:52.914Z,9.53
2022-09-20T06:54:52.783Z,9.54
2022-09-20T06:55:52.729Z,9.56
2022-09-20T06:56:52.656Z,9.56
2022-09-20T06:57:52.582Z,9.58
2022-09-20T06:58:53.315Z,9.61
2022-09-20T06:59:52.448Z,9.65
2022-09-20T07:00:52.435Z,9.65
2022-09-20T07:01:52.376Z,9.65
2022-09-20T07:02:52.245Z,9.66
2022-09-20T07:03:52.192Z,9.64
2022-09-20T07:04:52.144Z,9.66
2022-09-20T07:05:52.071Z,9.68
2022-09-20T07:06:51.982Z,9.69
2022-09-20T07:07:51.932Z,9.71
2022-09-20T07:08:51.868Z,9.72
2022-09-20T07:09:51.825Z,9.74
2022-09-20T07:10:52.515Z,9.75
2022-09-20T07:11:51.678Z,9.78
2022-09-20T07:12:51.628Z,9.81
2022-09-20T07:13:51.553Z,9.81
2022-09-20T07:14:51.487Z,9.83
2022-09-20T07:15:51.416Z,9.83
2022-09-20T07:16:51.419Z,9.83
2022-09-20T07:17:51.280Z,9.84
2022-09-20T07:18:51.210Z,9.84
2022-09-20T07:19:51.177Z,9.84
2022-09-20T07:20:51.073Z,9.84
2022-09-20T07:21:51.007Z,9.86
2022-09-20T07:22:51.011Z,9.89
2022-09-20T07:23:50.885Z,9.89
2022-09-20T07:24:50.805Z,9.89
2022-09-20T07:25:50.783Z,9.89
2022-09-20T07:26:50.684Z,9.90
2022-09-20T07:27:50.640Z,9.93
2022-09-20T07:28:51.336Z,9.94
2022-09-20T07:29:50.505Z,9.97
2022-09-20T07:30:50.455Z,10.01
2022-09-20T07:31:50.399Z,10.04
2022-09-20T07:32:50.296Z,10.05
2022-09-20T07:33:50.222Z,10.08
2022-09-20T07:34:51.701Z,10.11
2022-09-20T07:35:50.122Z,10.12
2022-09-20T07:36:50.045Z,10.15
2022-09-20T07:37:49.975Z,10.18
2022-09-20T07:38:49.891Z,10.20
2022-09-20T07:39:49.862Z,10.23
2022-09-20T07:40:50.861Z,10.20
2022-09-20T07:41:49.781Z,10.23
2022-09-20T07:42:53.043Z,10.25
2022-09-20T07:43:49.613Z,10.29
2022-09-20T07:44:49.518Z,10.33
2022-09-20T07:45:49.559Z,10.34
2022-09-20T07:46:49.402Z,10.41
2022-09-20T07:47:49.310Z,10.44
2022-09-20T07:48:49.258Z,10.47
2022-09-20T07:49:49.193Z,10.47
2022-09-20T07:50:49.394Z,10.51
2022-09-20T07:51:49.062Z,10.53
2022-09-20T07:52:49.011Z,10.53
2022-09-20T07:53:48.923Z,10.59
2022-09-20T07:54:48.846Z,10.60
2022-09-20T07:55:48.797Z,10.60
2022-09-20T07:56:48.730Z,10.63
2022-09-20T07:57:48.669Z,10.66
2022-09-20T07:58:52.406Z,10.63
2022-09-20T07:59:48.537Z,10.61
2022-09-20T08:00:48.518Z,10.61
2022-09-20T08:01:48.413Z,10.61
2022-09-20T08:02:48.342Z,10.61
2022-09-20T08:03:48.279Z,10.59
2022-09-20T08:04:48.211Z,10.59
2022-09-20T08:05:48.137Z,10.60
2022-09-20T08:06:48.081Z,10.55
2022-09-20T08:07:48.021Z,10.53
2022-09-20T08:08:47.933Z,10.56
2022-09-20T08:09:47.868Z,10.55
2022-09-20T08:10:49.031Z,10.55
2022-09-20T08:11:47.781Z,10.56
2022-09-20T08:14:47.564Z,10.59
2022-09-20T08:15:47.485Z,10.59
2022-09-20T08:16:47.661Z,10.61
2022-09-20T08:17:47.358Z,10.63
2022-09-20T08:18:47.313Z,10.63
2022-09-20T08:19:47.231Z,10.63
2022-09-20T08:20:47.178Z,10.67
2022-09-20T08:21:47.091Z,10.67
2022-09-20T08:23:00.853Z,10.70
2022-09-20T08:23:47.078Z,10.71
2022-09-20T08:24:46.888Z,10.71
2022-09-20T08:25:46.838Z,10.74
2022-09-20T08:26:46.793Z,10.76
2022-09-20T08:27:46.734Z,10.74
2022-09-20T08:28:46.684Z,10.76
2022-09-20T08:29:46.582Z,10.78
2022-09-20T08:30:46.511Z,10.78
2022-09-20T08:31:46.539Z,10.79
2022-09-20T08:32:46.367Z,10.81
2022-09-20T08:33:46.324Z,10.84
2022-09-20T08:34:49.387Z,10.85
2022-09-20T08:35:46.186Z,10.86
2022-09-20T08:36:46.132Z,10.86
2022-09-20T08:37:46.074Z,10.89
2022-09-20T08:40:03.722Z,10.91
2022-09-20T08:40:46.785Z,10.91
2022-09-20T08:41:45.780Z,10.92
2022-09-20T08:42:45.732Z,10.94
2022-09-20T08:43:45.908Z,11.00
2022-09-20T08:44:45.773Z,11.03
2022-09-20T08:45:46.466Z,11.11
2022-09-20T08:46:46.964Z,11.19
2022-09-20T08:47:45.393Z,11.27
2022-09-20T08:48:45.328Z,11.42
2022-09-20T08:49:46.579Z,11.57
2022-09-20T08:50:45.210Z,11.61
2022-09-20T08:51:48.681Z,11.67
2022-09-20T08:52:45.090Z,11.76
2022-09-20T08:53:49.066Z,11.88
2022-09-20T08:54:44.929Z,12.04
2022-09-20T08:55:44.890Z,12.13
2022-09-20T08:56:44.834Z,12.27
2022-09-20T08:57:44.736Z,12.34
2022-09-20T08:58:44.688Z,12.41
2022-09-20T08:59:44.619Z,12.39
2022-09-20T09:00:44.578Z,12.42
2022-09-20T09:01:44.492Z,12.46
2022-09-20T09:02:44.427Z,12.49
2022-09-20T09:03:44.348Z,12.49
2022-09-20T09:04:45.857Z,12.46
2022-09-20T09:05:44.252Z,12.42
2022-09-20T09:06:50.187Z,12.49
2022-09-20T09:07:33.606Z,12.59
2022-09-20T09:08:37.530Z,12.54
2022-09-20T09:09:37.732Z,12.50
2022-09-20T09:10:34.410Z,12.42
2022-09-20T09:11:34.345Z,12.37
2022-09-20T09:12:34.277Z,12.34
2022-09-20T09:13:34.224Z,12.29
2022-09-20T09:14:34.132Z,12.29
2022-09-20T09:15:34.215Z,12.28
2022-09-20T09:16:36.057Z,12.27
2022-09-20T09:17:33.949Z,12.28
2022-09-20T09:18:33.942Z,12.35
2022-09-20T09:19:34.267Z,12.39
2022-09-20T09:20:33.747Z,12.38
2022-09-20T09:21:33.697Z,12.41
2022-09-20T09:22:34.832Z,12.46
2022-09-20T09:23:33.568Z,12.56
2022-09-20T09:24:33.489Z,12.67
2022-09-20T09:25:33.485Z,12.74
2022-09-20T09:26:33.362Z,12.87
2022-09-20T09:27:33.301Z,12.83
2022-09-20T09:28:33.248Z,12.87
2022-09-20T09:29:35.022Z,12.92
2022-09-20T09:30:33.126Z,12.95
2022-09-20T09:31:33.128Z,13.08
2022-09-20T09:32:33.125Z,13.03
2022-09-20T09:33:32.894Z,13.00
2022-09-20T09:34:32.867Z,12.95
2022-09-20T09:35:32.781Z,12.97
2022-09-20T09:36:32.715Z,12.95
2022-09-20T09:37:32.660Z,12.92
2022-09-20T09:38:32.602Z,12.90
2022-09-20T09:39:32.515Z,12.86
2022-09-20T09:40:32.570Z,12.77
2022-09-20T09:41:32.537Z,12.71
2022-09-20T09:42:32.315Z,12.68
2022-09-20T09:43:32.244Z,12.68
2022-09-20T09:44:32.213Z,12.96
2022-09-20T09:45:32.192Z,13.03
2022-09-20T09:46:32.109Z,12.97
2022-09-20T09:47:31.990Z,12.93
2022-09-20T09:48:31.937Z,12.89
2022-09-20T09:49:31.854Z,12.85
2022-09-20T09:50:31.827Z,12.83
2022-09-20T09:51:31.742Z,12.79
2022-09-20T09:52:32.492Z,12.74
2022-09-20T09:53:31.599Z,12.68
2022-09-20T09:54:31.543Z,12.67
2022-09-20T09:55:31.480Z,12.67
2022-09-20T09:56:31.414Z,12.68
2022-09-20T09:57:31.332Z,12.71
2022-09-20T09:58:32.059Z,12.72
2022-09-20T09:59:31.217Z,12.75
2022-09-20T10:00:31.156Z,12.82
2022-09-20T10:01:33.358Z,12.93
2022-09-20T10:02:31.109Z,12.92
2022-09-20T10:03:30.966Z,12.90
2022-09-20T10:04:31.682Z,12.83
2022-09-20T10:05:30.810Z,12.78
2022-09-20T10:06:30.765Z,12.77
2022-09-20T10:07:30.702Z,12.77
2022-09-20T10:08:30.636Z,12.75
2022-09-20T10:09:30.574Z,12.74
2022-09-20T10:10:30.522Z,12.72
2022-09-20T10:11:30.469Z,12.74
2022-09-20T10:12:30.405Z,12.83
2022-09-20T10:13:30.295Z,13.25
2022-09-20T10:14:30.241Z,13.71
2022-09-20T10:15:30.175Z,14.15
2022-09-20T10:16:30.200Z,14.54
2022-09-20T10:17:30.064Z,14.95
2022-09-20T10:18:29.979Z,15.34
2022-09-20T10:19:29.917Z,15.35
2022-09-20T10:20:29.879Z,15.25
2022-09-20T10:21:29.815Z,15.19
2022-09-20T10:22:29.741Z,15.20
2022-09-20T10:23:51.944Z,15.06
2022-09-20T10:24:30.120Z,14.88
2022-09-20T10:25:29.518Z,14.72
2022-09-20T10:26:30.055Z,14.70
2022-09-20T10:27:29.392Z,14.64
2022-09-20T10:28:29.383Z,14.58
2022-09-20T10:29:29.289Z,14.52
2022-09-20T10:30:29.229Z,14.69
2022-09-20T10:31:29.217Z,14.80
2022-09-20T10:32:29.099Z,14.81
2022-09-20T10:33:29.011Z,14.80
2022-09-20T10:34:28.970Z,14.68
2022-09-20T10:35:28.888Z,14.57
2022-09-20T10:36:28.806Z,14.50
2022-09-20T10:37:28.753Z,14.45
2022-09-20T10:38:28.693Z,14.42
2022-09-20T10:39:28.629Z,14.69
2022-09-20T10:40:28.588Z,15.09
2022-09-20T10:41:28.518Z,15.39
2022-09-20T10:42:28.440Z,15.68
2022-09-20T10:43:28.377Z,15.90
2022-09-20T10:44:28.297Z,16.11
2022-09-20T10:45:53.687Z,16.27
2022-09-20T10:46:32.980Z,16.21
2022-09-20T10:47:28.180Z,16.21
2022-09-20T10:48:28.034Z,16.11
2022-09-20T10:49:27.973Z,15.97
2022-09-20T10:50:27.924Z,15.80
2022-09-20T10:51:27.860Z,15.68
2022-09-20T10:52:27.773Z,15.56
2022-09-20T10:53:27.702Z,15.47
2022-09-20T10:54:27.657Z,15.47
2022-09-20T10:55:27.580Z,15.64
2022-09-20T10:56:27.921Z,15.76
2022-09-20T10:57:27.488Z,15.90
2022-09-20T10:58:27.695Z,16.01
2022-09-20T10:59:27.337Z,15.97
2022-09-20T11:00:27.343Z,16.02
2022-09-20T11:01:29.237Z,16.07
2022-09-20T11:02:27.174Z,16.12
2022-09-20T11:03:27.078Z,16.14
2022-09-20T11:04:28.538Z,16.08
2022-09-20T11:05:26.953Z,15.96
2022-09-20T11:06:27.030Z,15.87
2022-09-20T11:07:26.818Z,15.80
2022-09-20T11:08:26.752Z,15.67
2022-09-20T11:09:26.673Z,15.54
2022-09-20T11:10:26.648Z,15.50
2022-09-20T11:11:26.558Z,15.53
2022-09-20T11:12:26.503Z,15.54
2022-09-20T11:13:26.428Z,15.59
2022-09-20T11:14:26.359Z,15.67
2022-09-20T11:15:26.312Z,15.74
2022-09-20T11:16:27.812Z,15.86
2022-09-20T11:17:26.158Z,15.89
2022-09-20T11:18:26.148Z,15.90
2022-09-20T11:19:26.048Z,15.89
2022-09-20T11:20:25.980Z,15.93
2022-09-20T11:21:25.943Z,16.00
2022-09-20T11:22:25.854Z,16.08
2022-09-20T11:23:26.632Z,16.05
2022-09-20T11:24:25.717Z,16.01
2022-09-20T11:25:29.452Z,16.01
2022-09-20T11:26:25.602Z,16.04
2022-09-20T11:27:25.507Z,16.05
2022-09-20T11:28:26.283Z,16.08
2022-09-20T11:29:25.389Z,16.08
2022-09-20T11:30:25.323Z,16.11
2022-09-20T11:31:25.327Z,16.07
2022-09-20T11:32:25.224Z,16.08
2022-09-20T11:33:25.135Z,16.12
2022-09-20T11:34:25.102Z,16.23
2022-09-20T11:35:25.015Z,16.24
2022-09-20T11:36:24.948Z,16.21
2022-09-20T11:37:24.883Z,16.17
2022-09-20T11:38:24.850Z,16.11
2022-09-20T11:39:24.780Z,16.04
2022-09-20T11:40:27.011Z,15.92
2022-09-20T11:41:24.670Z,15.86
2022-09-20T11:42:24.549Z,15.78
2022-09-20T11:43:24.487Z,15.76
2022-09-20T11:44:24.432Z,15.75
2022-09-20T11:45:28.255Z,15.68
2022-09-20T11:46:25.126Z,15.67
2022-09-20T11:47:49.841Z,15.71
2022-09-20T11:48:24.491Z,15.78
2022-09-20T11:49:24.298Z,15.90
2022-09-20T11:50:24.055Z,15.94
2022-09-20T11:51:24.001Z,16.07
2022-09-20T11:52:24.326Z,16.08
2022-09-20T11:53:24.369Z,16.05
2022-09-20T11:54:23.936Z,16.00
2022-09-20T11:55:23.817Z,15.96
2022-09-20T11:56:24.842Z,15.93
2022-09-20T11:57:23.571Z,15.93
2022-09-20T11:58:23.560Z,15.94
2022-09-20T11:59:23.469Z,16.00
2022-09-20T12:00:23.400Z,16.07
2022-09-20T12:01:27.937Z,16.14
2022-09-20T12:02:23.429Z,16.23
2022-09-20T12:03:23.364Z,16.28
2022-09-20T12:04:33.266Z,16.33
2022-09-20T12:05:23.062Z,16.39
2022-09-20T12:06:22.993Z,16.49
2022-09-20T12:07:23.051Z,16.58
2022-09-20T12:08:22.880Z,16.61
2022-09-20T12:09:22.806Z,16.61
2022-09-20T12:10:22.772Z,16.64
2022-09-20T12:11:22.682Z,16.67
2022-09-20T12:12:22.602Z,16.61
2022-09-20T12:13:22.586Z,16.56
2022-09-20T12:14:24.617Z,16.48
2022-09-20T12:15:23.868Z,16.42
2022-09-20T12:16:22.424Z,16.33
2022-09-20T12:17:22.418Z,16.24
2022-09-20T12:18:22.264Z,16.11
2022-09-20T12:19:22.148Z,16.01
2022-09-20T12:20:22.082Z,15.92
2022-09-20T12:21:24.113Z,15.84
2022-09-20T12:22:22.760Z,15.80
2022-09-20T12:23:21.899Z,15.80
2022-09-20T12:24:21.856Z,15.87
2022-09-20T12:25:21.783Z,15.93
2022-09-20T12:26:24.262Z,16.02
2022-09-20T12:27:21.752Z,16.08
2022-09-20T12:28:22.380Z,16.12
2022-09-20T12:29:21.548Z,16.15
2022-09-20T12:30:22.913Z,16.15
2022-09-20T12:31:23.836Z,16.23
2022-09-20T12:32:21.450Z,16.25
2022-09-20T12:33:21.259Z,16.31
2022-09-20T12:34:22.737Z,16.39
2022-09-20T12:35:21.137Z,16.45
2022-09-20T12:36:21.065Z,16.50
2022-09-20T12:37:21.004Z,16.52
2022-09-20T12:38:20.976Z,16.48
2022-09-20T12:39:24.200Z,16.46
2022-09-20T12:40:20.848Z,16.45
2022-09-20T12:41:27.878Z,16.38
2022-09-20T12:42:20.677Z,16.34
2022-09-20T12:43:20.620Z,16.34
2022-09-20T12:44:20.535Z,16.35
2022-09-20T12:45:20.469Z,16.39
2022-09-20T12:46:21.218Z,16.39
2022-09-20T12:47:20.341Z,16.41
2022-09-20T12:48:20.433Z,16.41
2022-09-20T12:49:20.226Z,16.41
2022-09-20T12:50:20.155Z,16.42
2022-09-20T12:51:20.103Z,16.48
2022-09-20T12:52:21.579Z,16.50
2022-09-20T12:53:19.960Z,16.56
2022-09-20T12:54:19.913Z,16.66
2022-09-20T12:55:19.829Z,16.75
2022-09-20T12:56:19.765Z,16.79
2022-09-20T12:57:19.709Z,16.85
2022-09-20T12:58:19.670Z,16.91
2022-09-20T12:59:19.600Z,16.96
2022-09-20T13:00:19.509Z,16.98
2022-09-20T13:01:19.878Z,17.00
2022-09-20T13:02:19.397Z,17.00
2022-09-20T13:03:19.322Z,17.03
2022-09-20T13:04:19.285Z,17.06
2022-09-20T13:05:19.193Z,17.08
2022-09-20T13:06:19.135Z,17.11
2022-09-20T13:07:19.067Z,17.14
2022-09-20T13:08:18.986Z,17.11
2022-09-20T13:09:18.971Z,17.11